Alvord, Texas
Current Conditions -  °F | °C
As of 3:15 AM on Wednesday 22 Oct 2014 (Local Time) from KLUD Reporting Station
Clear Clear  
Wind Chill: 64°   Ceiling: Unl
Heat Index: 64°   Visibility: 10mi
Dew Point: 56°   Wind: 3mph
Humidity: 76%   Direction: 150°SSE
Pressure: 30.08"   Gusts: NA
Location:  33.36°N, 97.69°W
Report Text: KLUD 220815Z AUTO 15003KT 10SM CLR 18/13 A3008 RMK AO2 T01750133
Loading
Personal Weather Stations






























Interactive Weather Map
Tropical Storm Tracking
New forecast layout! Learn more

10-Day Weather Forecast

Advertisements
Track Severe Weather on mobile